Main page
METAR-TAF:

METAR-TAF

Airports :

Badajoz, Spain

Badajoz Airport

latitude: 38-53N, longitude: 006-49W, elevation: 185 m

Current weather observation

The report was made 50 minutes ago, at 16:00 UTC
Wind 5 kt from the West, varying between West/Southwest and Northwest
Temperature 32°C
Humidity 21%
Pressure 1014 hPa
Visibility 10 km or more
no clouds below 1500 m and no cumulonimbus

METAR: LEBZ 221600Z 27005KT 240V320 CAVOK 32/07 Q1014

Time: 18:50 (16:50 UTC)

Forecast

The report was made 5 hours and 50 minutes ago, at 11:00 UTC
Forecast valid from 22 at 12 UTC to 23 at 12 UTC
Wind 5 kt from the West/Northwest
Visibility 10 km or more
no clouds below 1500 m and no cumulonimbus

TAF: LEBZ 221100Z 2212/2312 29005KT CAVOK TX31/2312Z TN17/2305Z

Weather observations and forecasts of more than 4000 airports (METAR and TAF reports).

The available stations are represented by yellow and red dots on the map.

Hover mouse over dot to see the name of the station.

Then click to see weather observations and forecasts.

To change the map : click on the green buttons with a black cross to zoom in, on the green button with a dash to zoom out, or on the green arrows for adjacent maps.


METAR-TAF: